Time;durP1;ratioP1;P1;durP2;ratioP2;P2;SDS_P1;SDS_P2;PMS_P1;PMS_P2;Temp;Humidity;BMP_temperature;BMP_pressure;BME280_temperature;BME280_humidity;BME280_pressure;Samples;Min_cycle;Max_cycle;Signal;HPM_P1;HPM_P2
2022/06/04 00:01:41;;;;;;;6.72;2.40;;;;;;;;;;5067653;28;20021;-72
2022/06/04 00:04:06;;;;;;;3.97;2.35;;;;;;;;;;5075213;28;20548;-70
2022/06/04 00:06:32;;;;;;;8.03;2.30;;;;;;;;;;5064257;28;20469;-70
2022/06/04 00:08:57;;;;;;;3.42;2.53;;;;;;;;;;5076943;28;20319;-70
2022/06/04 00:16:50;;;;;;;3.97;2.45;;;;;;;;;;5062616;28;20411;-71
2022/06/04 00:19:15;;;;;;;8.07;2.20;;;;;;;;;;5080359;28;20023;-70
2022/06/04 00:21:40;;;;;;;3.93;2.73;;;;;;;;;;5059522;28;20282;-70
2022/06/04 00:24:06;;;;;;;3.10;2.40;;;;;;;;;;5065688;28;20329;-71
2022/06/04 00:26:31;;;;;;;5.68;2.40;;;;;;;;;;5066602;28;20360;-70
2022/06/04 00:28:56;;;;;;;3.45;2.55;;;;;;;;;;5072043;28;20385;-70
2022/06/04 00:31:22;;;;;;;5.88;3.13;;;;;;;;;;5092367;22;20086;-67
2022/06/04 00:33:47;;;;;;;4.30;2.53;;;;;;;;;;5084770;28;20055;-67
2022/06/04 00:36:12;;;;;;;9.13;2.70;;;;;;;;;;5082777;28;20032;-67
2022/06/04 00:38:37;;;;;;;2.63;1.97;;;;;;;;;;5073524;28;20159;-67
2022/06/04 00:41:11;;;;;;;5.07;2.75;;;;;;;;;;5083570;28;20619;-66
2022/06/04 00:43:57;;;;;;;5.38;2.65;;;;;;;;;;5086301;28;20387;-67
2022/06/04 00:46:41;;;;;;;5.88;2.50;;;;;;;;;;5084903;28;20020;-68
2022/06/04 00:49:10;;;;;;;6.72;2.47;;;;;;;;;;5088310;28;20026;-67
2022/06/04 00:51:35;;;;;;;3.72;2.50;;;;;;;;;;5080977;28;20020;-68
2022/06/04 00:54:00;;;;;;;7.20;3.08;;;;;;;;;;5086167;28;20062;-67
2022/06/04 00:56:35;;;;;;;9.32;2.67;;;;;;;;;;5075892;28;20549;-67
2022/06/04 00:59:05;;;;;;;3.58;2.60;;;;;;;;;;5087140;28;20016;-67
2022/06/04 01:01:46;;;;;;;4.10;2.42;;;;;;;;;;5078904;28;20020;-66
2022/06/04 01:04:47;;;;;;;5.47;3.00;;;;;;;;;;5090247;28;20024;-67
2022/06/04 01:07:20;;;;;;;4.28;2.42;;;;;;;;;;5086457;28;20012;-68
2022/06/04 01:09:48;;;;;;;7.18;3.13;;;;;;;;;;5089252;28;20032;-67
2022/06/04 01:12:13;;;;;;;5.15;3.03;;;;;;;;;;5088763;28;20048;-67
2022/06/04 01:14:57;;;;;;;7.17;2.50;;;;;;;;;;5085921;28;20063;-68
2022/06/04 01:17:35;;;;;;;5.03;2.95;;;;;;;;;;5081470;28;20020;-66
2022/06/04 01:20:03;;;;;;;4.00;2.90;;;;;;;;;;5084098;28;20361;-66
2022/06/04 01:22:29;;;;;;;5.07;2.97;;;;;;;;;;5084003;28;20024;-68
2022/06/04 01:25:05;;;;;;;5.45;2.92;;;;;;;;;;5089872;28;20486;-66
2022/06/04 01:27:38;;;;;;;6.15;3.28;;;;;;;;;;5085373;28;20022;-67
2022/06/04 01:30:07;;;;;;;7.72;3.20;;;;;;;;;;5088618;28;20020;-66
2022/06/04 01:32:41;;;;;;;6.83;2.90;;;;;;;;;;5082240;28;20024;-66
2022/06/04 01:35:09;;;;;;;10.50;3.35;;;;;;;;;;5087127;28;20724;-67
2022/06/04 01:37:42;;;;;;;8.85;3.35;;;;;;;;;;5085140;28;20043;-67
2022/06/04 01:42:55;;;;;;;6.97;2.97;;;;;;;;;;5086076;28;20153;-67
2022/06/04 01:45:21;;;;;;;5.07;2.83;;;;;;;;;;5086910;28;20525;-67
2022/06/04 01:47:47;;;;;;;8.70;3.13;;;;;;;;;;5083178;28;20467;-67
2022/06/04 01:50:15;;;;;;;6.30;2.72;;;;;;;;;;5083841;28;20020;-66
2022/06/04 01:52:41;;;;;;;10.60;3.20;;;;;;;;;;5083991;28;20024;-66
2022/06/04 01:55:14;;;;;;;3.90;2.80;;;;;;;;;;5090319;28;20110;-66
2022/06/04 01:57:41;;;;;;;4.97;2.88;;;;;;;;;;5084471;28;20019;-67
2022/06/04 02:00:10;;;;;;;7.60;3.10;;;;;;;;;;5087969;28;20028;-68
2022/06/04 02:02:55;;;;;;;8.43;3.50;;;;;;;;;;5084022;28;20043;-67
2022/06/04 02:05:44;;;;;;;5.30;3.30;;;;;;;;;;5084899;28;20040;-67
2022/06/04 02:08:12;;;;;;;10.48;4.10;;;;;;;;;;5050000;28;20066;-67
2022/06/04 02:10:42;;;;;;;6.47;3.22;;;;;;;;;;5084070;28;20082;-67
2022/06/04 02:13:09;;;;;;;4.22;3.20;;;;;;;;;;5085893;28;20420;-67
2022/06/04 02:15:44;;;;;;;5.32;4.20;;;;;;;;;;5086153;28;20021;-67
2022/06/04 02:18:10;;;;;;;6.18;3.22;;;;;;;;;;5088889;28;20030;-67
2022/06/04 02:20:35;;;;;;;7.20;3.60;;;;;;;;;;5086873;28;20028;-67
2022/06/04 02:23:01;;;;;;;5.20;3.35;;;;;;;;;;5089128;28;20035;-67
2022/06/04 02:25:28;;;;;;;3.90;2.80;;;;;;;;;;5082476;28;20008;-67
2022/06/04 02:27:53;;;;;;;5.90;3.50;;;;;;;;;;5084545;28;20040;-67
2022/06/04 02:30:20;;;;;;;6.35;3.55;;;;;;;;;;5087867;28;20066;-67
2022/06/04 02:32:54;;;;;;;7.93;3.70;;;;;;;;;;5087138;28;20046;-67
2022/06/04 02:35:19;;;;;;;4.68;3.50;;;;;;;;;;5085976;28;20024;-67
2022/06/04 02:37:47;;;;;;;6.18;3.67;;;;;;;;;;5087357;28;20108;-67
2022/06/04 02:40:22;;;;;;;9.25;3.58;;;;;;;;;;5085389;28;20051;-67
2022/06/04 02:42:52;;;;;;;5.93;3.55;;;;;;;;;;5086648;28;20103;-67
2022/06/04 02:45:27;;;;;;;7.53;4.47;;;;;;;;;;5086622;28;20069;-67
2022/06/04 02:47:59;;;;;;;9.65;3.60;;;;;;;;;;5087719;28;20028;-67
2022/06/04 02:50:27;;;;;;;4.75;3.40;;;;;;;;;;5080773;28;20091;-67
2022/06/04 02:52:55;;;;;;;5.60;3.60;;;;;;;;;;5084864;28;20400;-67
2022/06/04 02:55:23;;;;;;;7.22;4.07;;;;;;;;;;5081608;28;20027;-67
2022/06/04 02:57:50;;;;;;;6.13;3.53;;;;;;;;;;5088182;28;20028;-67
2022/06/04 03:00:17;;;;;;;6.03;4.07;;;;;;;;;;5079893;28;20028;-67
2022/06/04 03:02:43;;;;;;;5.32;3.92;;;;;;;;;;5089613;28;20364;-67
2022/06/04 03:05:10;;;;;;;7.68;3.65;;;;;;;;;;5085099;28;20024;-67
2022/06/04 03:07:37;;;;;;;7.22;3.72;;;;;;;;;;5083493;28;20062;-67
2022/06/04 03:10:07;;;;;;;7.30;3.90;;;;;;;;;;5088475;28;20027;-67
2022/06/04 03:12:32;;;;;;;5.63;3.83;;;;;;;;;;5086083;28;20063;-67
2022/06/04 03:14:57;;;;;;;6.87;3.57;;;;;;;;;;5088428;28;20052;-67
2022/06/04 03:17:23;;;;;;;6.40;3.83;;;;;;;;;;5086128;28;20515;-67
2022/06/04 03:19:48;;;;;;;6.90;4.00;;;;;;;;;;5081579;28;20274;-67
2022/06/04 03:22:13;;;;;;;5.87;4.07;;;;;;;;;;5083305;28;20032;-67
2022/06/04 03:24:38;;;;;;;8.55;4.18;;;;;;;;;;5090897;28;20273;-67
2022/06/04 03:27:03;;;;;;;7.23;4.23;;;;;;;;;;5090144;28;20020;-67
2022/06/04 03:29:29;;;;;;;5.47;3.53;;;;;;;;;;5091723;28;20277;-67
2022/06/04 03:31:54;;;;;;;8.53;3.97;;;;;;;;;;5090127;28;20491;-67
2022/06/04 03:34:19;;;;;;;6.07;3.75;;;;;;;;;;5089344;28;20335;-67
2022/06/04 03:36:44;;;;;;;6.73;3.67;;;;;;;;;;5080844;28;20012;-67
2022/06/04 03:39:10;;;;;;;6.77;4.30;;;;;;;;;;5091476;28;20463;-67
2022/06/04 03:41:36;;;;;;;7.90;3.80;;;;;;;;;;5090256;28;20269;-67
2022/06/04 03:44:01;;;;;;;11.38;3.60;;;;;;;;;;5092827;28;20024;-67
2022/06/04 03:46:27;;;;;;;7.13;3.90;;;;;;;;;;5088606;28;20012;-67
2022/06/04 03:48:56;;;;;;;7.88;3.60;;;;;;;;;;5093028;28;20047;-67
2022/06/04 03:51:22;;;;;;;6.65;3.70;;;;;;;;;;5087332;28;20019;-67
2022/06/04 03:53:47;;;;;;;8.43;3.90;;;;;;;;;;5088900;28;20028;-67
2022/06/04 03:56:13;;;;;;;7.33;3.30;;;;;;;;;;5091044;28;20416;-67
2022/06/04 03:58:38;;;;;;;8.43;3.80;;;;;;;;;;5087661;28;20278;-67
2022/06/04 04:01:17;;;;;;;9.23;3.60;;;;;;;;;;5092709;28;20020;-67
2022/06/04 04:03:42;;;;;;;5.10;4.15;;;;;;;;;;5085380;28;20376;-67
2022/06/04 04:06:11;;;;;;;6.40;3.42;;;;;;;;;;5089801;28;20013;-67
2022/06/04 04:08:37;;;;;;;7.07;3.60;;;;;;;;;;5089024;28;20112;-67
2022/06/04 04:11:05;;;;;;;7.53;3.78;;;;;;;;;;5088437;28;20417;-67
2022/06/04 04:13:30;;;;;;;9.10;3.75;;;;;;;;;;5091615;28;20042;-67
2022/06/04 04:15:56;;;;;;;6.40;3.60;;;;;;;;;;5089649;28;20467;-67
2022/06/04 04:18:21;;;;;;;7.28;3.55;;;;;;;;;;5090714;28;20019;-67
2022/06/04 04:20:48;;;;;;;4.68;3.35;;;;;;;;;;5087514;28;20379;-67
2022/06/04 04:23:13;;;;;;;5.45;3.20;;;;;;;;;;5088965;28;20112;-67
2022/06/04 04:25:39;;;;;;;7.45;3.88;;;;;;;;;;5089479;28;20098;-67
2022/06/04 04:28:04;;;;;;;8.05;3.70;;;;;;;;;;5089245;28;20023;-67
2022/06/04 04:30:30;;;;;;;4.45;3.30;;;;;;;;;;5089511;28;20023;-67
2022/06/04 04:32:56;;;;;;;5.00;3.63;;;;;;;;;;5086536;28;20070;-70
2022/06/04 04:35:25;;;;;;;5.70;3.60;;;;;;;;;;5089148;28;20487;-67
2022/06/04 04:37:51;;;;;;;4.63;3.35;;;;;;;;;;5088862;28;20027;-67
2022/06/04 04:40:17;;;;;;;8.30;3.55;;;;;;;;;;5090671;28;20061;-67
2022/06/04 04:42:43;;;;;;;9.35;3.35;;;;;;;;;;5085354;28;20023;-67
2022/06/04 04:45:09;;;;;;;8.00;3.85;;;;;;;;;;5083650;28;20291;-67
2022/06/04 04:47:35;;;;;;;6.93;3.80;;;;;;;;;;5081780;28;20023;-67
2022/06/04 04:50:00;;;;;;;14.38;3.50;;;;;;;;;;5086814;28;20019;-67
2022/06/04 04:52:27;;;;;;;5.28;3.72;;;;;;;;;;5090588;28;20080;-67
2022/06/04 04:54:53;;;;;;;4.72;3.47;;;;;;;;;;5090214;28;20020;-67
2022/06/04 04:57:18;;;;;;;9.38;3.20;;;;;;;;;;5085898;28;20024;-67
2022/06/04 04:59:43;;;;;;;5.03;3.38;;;;;;;;;;5090713;28;20020;-67
2022/06/04 05:02:08;;;;;;;12.70;3.37;;;;;;;;;;5085981;28;20020;-67
2022/06/04 05:04:34;;;;;;;8.40;3.33;;;;;;;;;;5084586;28;20266;-67
2022/06/04 05:06:59;;;;;;;6.90;3.40;;;;;;;;;;5088883;28;20272;-67
2022/06/04 05:09:24;;;;;;;5.40;3.57;;;;;;;;;;5087034;28;20510;-67
2022/06/04 05:11:49;;;;;;;10.20;3.80;;;;;;;;;;5088799;28;20296;-67
2022/06/04 05:14:15;;;;;;;5.27;3.40;;;;;;;;;;5089731;28;20277;-67
2022/06/04 05:16:40;;;;;;;5.60;3.10;;;;;;;;;;5088830;28;20272;-67
2022/06/04 05:19:06;;;;;;;4.43;3.58;;;;;;;;;;5086543;28;20024;-67
2022/06/04 05:21:37;;;;;;;7.80;3.22;;;;;;;;;;5089080;28;20020;-67
2022/06/04 05:24:02;;;;;;;7.05;3.38;;;;;;;;;;5087246;28;20024;-67
2022/06/04 05:26:27;;;;;;;4.40;3.50;;;;;;;;;;5087951;28;20400;-67
2022/06/04 05:28:53;;;;;;;4.20;3.33;;;;;;;;;;5090695;28;20480;-67
2022/06/04 05:31:18;;;;;;;5.80;3.00;;;;;;;;;;5084338;28;20308;-67
2022/06/04 05:33:44;;;;;;;5.35;3.20;;;;;;;;;;5084154;28;20028;-67
2022/06/04 05:36:09;;;;;;;6.17;3.40;;;;;;;;;;5084764;28;20028;-67
2022/06/04 05:38:34;;;;;;;5.20;3.25;;;;;;;;;;5090408;28;20757;-67
2022/06/04 05:41:04;;;;;;;6.78;3.67;;;;;;;;;;5082759;28;20021;-67
2022/06/04 05:43:29;;;;;;;5.65;3.28;;;;;;;;;;5089967;28;20023;-67
2022/06/04 05:45:58;;;;;;;4.80;3.10;;;;;;;;;;5088341;28;20069;-67
2022/06/04 05:48:23;;;;;;;4.88;2.90;;;;;;;;;;5087036;28;20797;-67
2022/06/04 05:50:49;;;;;;;5.65;3.47;;;;;;;;;;5083905;28;20028;-67
2022/06/04 05:53:14;;;;;;;6.13;3.10;;;;;;;;;;5089616;28;20154;-67
2022/06/04 05:55:39;;;;;;;7.03;3.20;;;;;;;;;;5081706;28;20066;-67
2022/06/04 05:58:05;;;;;;;9.73;4.18;;;;;;;;;;5082766;28;20282;-67
2022/06/04 06:00:30;;;;;;;10.07;4.93;;;;;;;;;;5084717;28;20032;-67
2022/06/04 06:02:55;;;;;;;6.30;3.87;;;;;;;;;;5086014;28;20097;-67
2022/06/04 06:05:21;;;;;;;10.23;3.45;;;;;;;;;;5078925;28;20384;-67
2022/06/04 06:07:46;;;;;;;6.67;3.47;;;;;;;;;;5089087;28;20116;-67
2022/06/04 06:10:11;;;;;;;6.63;3.28;;;;;;;;;;5067219;28;20024;-67
2022/06/04 06:12:37;;;;;;;4.80;3.20;;;;;;;;;;5089314;28;20024;-67
2022/06/04 06:15:02;;;;;;;8.57;3.70;;;;;;;;;;5087202;28;20274;-67
2022/06/04 06:17:27;;;;;;;5.28;3.40;;;;;;;;;;5082269;28;20298;-67
2022/06/04 06:19:53;;;;;;;9.90;3.88;;;;;;;;;;5086023;28;20033;-67
2022/06/04 06:22:18;;;;;;;8.43;3.60;;;;;;;;;;5087971;28;20042;-67
2022/06/04 06:24:43;;;;;;;6.03;3.93;;;;;;;;;;5087006;28;20452;-67
2022/06/04 06:27:10;;;;;;;5.40;2.97;;;;;;;;;;5088466;28;20270;-68
2022/06/04 06:29:35;;;;;;;5.78;3.47;;;;;;;;;;5085986;28;20314;-68
2022/06/04 06:32:00;;;;;;;8.45;3.65;;;;;;;;;;5088692;23;20061;-71
2022/06/04 06:34:26;;;;;;;5.15;3.15;;;;;;;;;;5063543;28;20632;-68
2022/06/04 06:36:51;;;;;;;4.85;3.40;;;;;;;;;;5067383;28;20020;-68
2022/06/04 06:39:17;;;;;;;6.57;3.28;;;;;;;;;;5068509;28;20017;-68
2022/06/04 06:41:42;;;;;;;6.90;3.75;;;;;;;;;;5082436;28;20037;-68
2022/06/04 06:44:10;;;;;;;5.18;3.63;;;;;;;;;;5087166;28;20099;-68
2022/06/04 06:46:36;;;;;;;6.43;3.50;;;;;;;;;;5087952;28;20118;-68
2022/06/04 06:49:05;;;;;;;6.78;3.58;;;;;;;;;;5085737;28;20051;-69
2022/06/04 06:51:32;;;;;;;8.13;3.40;;;;;;;;;;5082619;28;20024;-69
2022/06/04 06:53:57;;;;;;;14.52;3.30;;;;;;;;;;5085003;28;20085;-69
2022/06/04 06:56:26;;;;;;;5.25;3.13;;;;;;;;;;5087718;28;20024;-69
2022/06/04 06:58:51;;;;;;;5.60;3.70;;;;;;;;;;5089971;28;20020;-69
2022/06/04 07:01:17;;;;;;;6.95;3.30;;;;;;;;;;5086383;28;20117;-68
2022/06/04 07:03:42;;;;;;;7.27;3.37;;;;;;;;;;5082617;28;20032;-69
2022/06/04 07:06:10;;;;;;;5.40;3.10;;;;;;;;;;5084667;28;20270;-68
2022/06/04 07:08:36;;;;;;;5.75;3.30;;;;;;;;;;5082923;28;20055;-68
2022/06/04 07:11:02;;;;;;;8.60;3.38;;;;;;;;;;5087535;28;20026;-69
2022/06/04 07:13:27;;;;;;;7.63;3.60;;;;;;;;;;5086492;28;20423;-69
2022/06/04 07:15:52;;;;;;;5.03;3.35;;;;;;;;;;5087953;28;20020;-69
2022/06/04 07:18:18;;;;;;;9.83;3.23;;;;;;;;;;5082889;28;20035;-68
2022/06/04 07:20:43;;;;;;;9.05;3.50;;;;;;;;;;5086024;28;20269;-68
2022/06/04 07:23:09;;;;;;;6.33;3.47;;;;;;;;;;5085247;28;20556;-71
2022/06/04 07:25:35;;;;;;;4.40;2.95;;;;;;;;;;5087717;28;20777;-71
2022/06/04 07:28:00;;;;;;;3.45;2.80;;;;;;;;;;5091082;28;20056;-69
2022/06/04 07:30:26;;;;;;;9.47;3.47;;;;;;;;;;5082881;28;20015;-68
2022/06/04 07:32:52;;;;;;;4.50;3.20;;;;;;;;;;5085793;28;20305;-73
2022/06/04 07:35:18;;;;;;;10.05;3.55;;;;;;;;;;5087836;28;20024;-69
2022/06/04 07:37:43;;;;;;;7.82;3.72;;;;;;;;;;5087020;28;20031;-70
2022/06/04 07:40:11;;;;;;;6.60;3.55;;;;;;;;;;5088672;28;20468;-68
2022/06/04 07:42:36;;;;;;;5.10;3.65;;;;;;;;;;5087596;28;20109;-68
2022/06/04 07:45:02;;;;;;;6.93;3.47;;;;;;;;;;5088520;28;20475;-70
2022/06/04 07:47:27;;;;;;;4.70;3.40;;;;;;;;;;5087729;28;20443;-69
2022/06/04 07:49:56;;;;;;;8.17;3.40;;;;;;;;;;5090648;28;20436;-70
2022/06/04 07:52:21;;;;;;;5.15;3.30;;;;;;;;;;5082972;28;20273;-69
2022/06/04 07:54:46;;;;;;;7.05;4.15;;;;;;;;;;5086551;28;20016;-68
2022/06/04 07:57:11;;;;;;;5.90;4.00;;;;;;;;;;5090734;28;20507;-69
2022/06/04 07:59:36;;;;;;;7.77;3.13;;;;;;;;;;5087174;28;20269;-68
2022/06/04 08:02:02;;;;;;;4.00;3.23;;;;;;;;;;5083996;28;20028;-69
2022/06/04 08:04:27;;;;;;;4.35;3.15;;;;;;;;;;5090081;28;20103;-69
2022/06/04 08:06:52;;;;;;;6.53;3.08;;;;;;;;;;5085822;28;20066;-69
2022/06/04 08:09:17;;;;;;;3.93;3.00;;;;;;;;;;5087802;28;20023;-69
2022/06/04 08:11:43;;;;;;;8.65;2.88;;;;;;;;;;5084496;28;20055;-68
2022/06/04 08:14:19;;;;;;;7.60;2.93;;;;;;;;;;5084552;28;20020;-71
2022/06/04 08:16:47;;;;;;;5.13;3.30;;;;;;;;;;5085177;28;20309;-70
2022/06/04 08:19:13;;;;;;;3.75;2.78;;;;;;;;;;5083931;28;20099;-70
2022/06/04 08:21:39;;;;;;;5.60;3.08;;;;;;;;;;5090563;28;20123;-70
2022/06/04 08:24:04;;;;;;;6.70;2.90;;;;;;;;;;5090655;28;20472;-70
2022/06/04 08:26:30;;;;;;;4.22;3.78;;;;;;;;;;5085259;28;20376;-70
2022/06/04 08:28:55;;;;;;;4.63;3.28;;;;;;;;;;5087723;28;20016;-70
2022/06/04 08:31:21;;;;;;;3.67;2.65;;;;;;;;;;5087441;28;20016;-71
2022/06/04 08:33:46;;;;;;;5.47;2.97;;;;;;;;;;5091158;28;20118;-70
2022/06/04 08:36:12;;;;;;;7.65;3.60;;;;;;;;;;5090323;28;20357;-70
2022/06/04 08:38:38;;;;;;;5.90;2.92;;;;;;;;;;5089881;28;20035;-70
2022/06/04 08:41:05;;;;;;;11.30;3.80;;;;;;;;;;5087435;28;20020;-68
2022/06/04 08:43:40;;;;;;;5.28;3.17;;;;;;;;;;5089327;28;20040;-70
2022/06/04 08:46:25;;;;;;;26.02;4.13;;;;;;;;;;5089801;28;20046;-70
2022/06/04 08:48:50;;;;;;;4.80;3.28;;;;;;;;;;5087255;28;20071;-70
2022/06/04 08:51:21;;;;;;;6.93;3.03;;;;;;;;;;5088851;28;20065;-69
2022/06/04 08:53:49;;;;;;;5.05;2.95;;;;;;;;;;5089707;28;20027;-70
2022/06/04 08:59:25;;;;;;;5.05;3.28;;;;;;;;;;5081917;28;20081;-70
2022/06/04 09:01:54;;;;;;;6.28;3.20;;;;;;;;;;5083697;28;21722;-68
2022/06/04 09:04:22;;;;;;;7.07;3.13;;;;;;;;;;5089319;28;20012;-70
2022/06/04 09:06:53;;;;;;;8.55;3.00;;;;;;;;;;5086603;28;20418;-72
2022/06/04 09:09:30;;;;;;;7.13;3.30;;;;;;;;;;5080519;28;20013;-69
2022/06/04 09:11:57;;;;;;;5.22;3.20;;;;;;;;;;5088531;28;20016;-69
2022/06/04 09:14:39;;;;;;;5.68;3.38;;;;;;;;;;5091265;28;20020;-70
2022/06/04 09:17:16;;;;;;;10.73;5.15;;;;;;;;;;5088420;28;20016;-70
2022/06/04 09:19:43;;;;;;;4.40;2.85;;;;;;;;;;5083788;28;20024;-70
2022/06/04 09:22:19;;;;;;;7.95;2.85;;;;;;;;;;5078985;28;20039;-70
2022/06/04 09:24:44;;;;;;;9.25;3.60;;;;;;;;;;5089130;28;20468;-70
2022/06/04 09:27:29;;;;;;;4.57;2.95;;;;;;;;;;5086765;28;20031;-70
2022/06/04 09:30:04;;;;;;;6.70;3.85;;;;;;;;;;5087181;28;20043;-70
2022/06/04 09:32:45;;;;;;;7.00;3.80;;;;;;;;;;5079868;28;20384;-70
2022/06/04 09:35:17;;;;;;;6.53;4.03;;;;;;;;;;5088471;28;20089;-70
2022/06/04 09:37:46;;;;;;;4.75;3.20;;;;;;;;;;5089294;28;20023;-70
2022/06/04 09:40:19;;;;;;;5.75;3.20;;;;;;;;;;5084165;28;20028;-70
2022/06/04 09:42:45;;;;;;;6.35;3.50;;;;;;;;;;5085594;28;20025;-70
2022/06/04 09:45:19;;;;;;;7.85;3.88;;;;;;;;;;5088386;28;20028;-71
2022/06/04 09:47:45;;;;;;;6.78;3.75;;;;;;;;;;5087632;28;20076;-70
2022/06/04 09:50:18;;;;;;;8.55;3.53;;;;;;;;;;5082233;28;20319;-69
2022/06/04 09:52:46;;;;;;;12.43;3.25;;;;;;;;;;5088600;28;20486;-68
2022/06/04 09:55:21;;;;;;;7.25;3.90;;;;;;;;;;5085678;28;20024;-68
2022/06/04 09:57:57;;;;;;;5.13;3.88;;;;;;;;;;5086220;28;20042;-69
2022/06/04 10:00:24;;;;;;;5.50;3.60;;;;;;;;;;5083559;28;20384;-69
2022/06/04 10:02:57;;;;;;;9.27;4.03;;;;;;;;;;5080744;28;20498;-68
2022/06/04 10:05:24;;;;;;;5.20;3.45;;;;;;;;;;5086177;28;20020;-70
2022/06/04 10:07:49;;;;;;;6.95;3.80;;;;;;;;;;5086386;28;20368;-68
2022/06/04 10:10:27;;;;;;;9.13;4.05;;;;;;;;;;5084375;28;20028;-68
2022/06/04 10:15:38;;;;;;;6.43;4.00;;;;;;;;;;5086237;28;20027;-69
2022/06/04 10:18:05;;;;;;;5.75;3.25;;;;;;;;;;5088356;28;20123;-70
2022/06/04 10:20:31;;;;;;;6.68;4.00;;;;;;;;;;5087768;28;20012;-69
2022/06/04 10:22:56;;;;;;;8.48;3.90;;;;;;;;;;5090328;28;20047;-69
2022/06/04 10:25:25;;;;;;;8.15;3.60;;;;;;;;;;5088698;28;20438;-69
2022/06/04 10:28:08;;;;;;;6.45;3.63;;;;;;;;;;5080679;28;20028;-69
2022/06/04 10:30:53;;;;;;;11.75;3.75;;;;;;;;;;5089598;28;20447;-69
2022/06/04 10:33:37;;;;;;;4.68;3.42;;;;;;;;;;5092893;28;20388;-69
2022/06/04 10:36:05;;;;;;;11.90;4.25;;;;;;;;;;5093319;28;20052;-69
2022/06/04 10:38:39;;;;;;;6.38;4.55;;;;;;;;;;5092235;28;20016;-69
2022/06/04 10:41:15;;;;;;;7.20;3.45;;;;;;;;;;5092907;28;20365;-69
2022/06/04 10:43:52;;;;;;;7.03;4.00;;;;;;;;;;5090695;28;20106;-69
2022/06/04 10:46:22;;;;;;;9.05;4.50;;;;;;;;;;5078959;28;20024;-69
2022/06/04 10:49:08;;;;;;;4.78;3.90;;;;;;;;;;5088180;28;20009;-69
2022/06/04 10:51:51;;;;;;;5.57;3.47;;;;;;;;;;5090714;28;20012;-69
2022/06/04 10:54:27;;;;;;;5.70;3.53;;;;;;;;;;5092121;28;20027;-69
2022/06/04 10:56:59;;;;;;;8.05;3.65;;;;;;;;;;5086325;28;20024;-69
2022/06/04 10:59:32;;;;;;;8.82;4.15;;;;;;;;;;5082606;28;20023;-69
2022/06/04 11:02:17;;;;;;;6.13;3.63;;;;;;;;;;5087319;28;20020;-69
2022/06/04 11:04:45;;;;;;;12.77;4.68;;;;;;;;;;5090034;28;20109;-69
2022/06/04 11:07:29;;;;;;;6.72;4.82;;;;;;;;;;5091365;28;20102;-72
2022/06/04 11:09:55;;;;;;;10.75;5.93;;;;;;;;;;5085775;28;20077;-68
2022/06/04 11:12:39;;;;;;;6.35;3.53;;;;;;;;;;5092463;28;20035;-68
2022/06/04 11:15:07;;;;;;;9.32;3.33;;;;;;;;;;5092424;28;20035;-71
2022/06/04 11:17:47;;;;;;;4.43;3.42;;;;;;;;;;5089677;28;20046;-70
2022/06/04 11:20:15;;;;;;;6.20;3.92;;;;;;;;;;5091388;28;20046;-69
2022/06/04 11:22:44;;;;;;;6.70;4.10;;;;;;;;;;5089132;28;20039;-68
2022/06/04 11:25:14;;;;;;;4.90;3.85;;;;;;;;;;5090894;28;20391;-69
2022/06/04 11:27:42;;;;;;;7.05;4.80;;;;;;;;;;5091371;28;20030;-69
2022/06/04 11:30:15;;;;;;;5.20;4.03;;;;;;;;;;5091352;28;20495;-69
2022/06/04 11:32:43;;;;;;;7.18;3.78;;;;;;;;;;5090980;28;20036;-68
2022/06/04 11:35:11;;;;;;;8.55;4.07;;;;;;;;;;5092131;28;20030;-68
2022/06/04 11:37:55;;;;;;;7.75;3.33;;;;;;;;;;5087228;28;20103;-68
2022/06/04 11:40:32;;;;;;;6.95;3.58;;;;;;;;;;5088324;28;20046;-69
2022/06/04 11:42:59;;;;;;;7.85;3.65;;;;;;;;;;5090956;28;20020;-68
2022/06/04 11:45:33;;;;;;;7.80;4.30;;;;;;;;;;5090603;28;20373;-69
2022/06/04 11:48:18;;;;;;;5.97;3.65;;;;;;;;;;5092505;28;20495;-69
2022/06/04 11:50:48;;;;;;;10.98;4.22;;;;;;;;;;5052923;28;20129;-69
2022/06/04 11:53:22;;;;;;;9.32;4.40;;;;;;;;;;5089970;28;20050;-69
2022/06/04 11:56:11;;;;;;;4.65;3.40;;;;;;;;;;5088488;28;20358;-68
2022/06/04 11:58:55;;;;;;;4.25;3.38;;;;;;;;;;5078563;28;20043;-68
2022/06/04 12:01:32;;;;;;;9.75;4.88;;;;;;;;;;5087697;28;20020;-68
2022/06/04 12:04:01;;;;;;;6.45;4.25;;;;;;;;;;5091411;28;20487;-68
2022/06/04 12:06:31;;;;;;;5.75;4.28;;;;;;;;;;5089384;28;20024;-68
2022/06/04 12:09:15;;;;;;;7.07;4.35;;;;;;;;;;5089327;28;20034;-69
2022/06/04 12:11:45;;;;;;;5.15;4.15;;;;;;;;;;5090975;28;20020;-68
2022/06/04 12:14:28;;;;;;;4.93;3.58;;;;;;;;;;5088714;28;20109;-68
2022/06/04 12:16:53;;;;;;;6.70;3.50;;;;;;;;;;5084838;28;20023;-69
2022/06/04 12:24:59;;;;;;;6.97;4.03;;;;;;;;;;5089662;28;20027;-69
2022/06/04 12:27:25;;;;;;;7.97;4.45;;;;;;;;;;5089451;28;20095;-70
2022/06/04 12:29:51;;;;;;;7.90;4.30;;;;;;;;;;5090994;28;20401;-70
2022/06/04 12:32:17;;;;;;;7.40;3.85;;;;;;;;;;5040892;22;20065;-89
2022/06/04 12:34:42;;;;;;;10.88;4.43;;;;;;;;;;5030956;28;20501;-87
2022/06/04 12:37:26;;;;;;;5.22;3.85;;;;;;;;;;5015411;28;20036;-89
2022/06/04 12:39:51;;;;;;;4.70;4.13;;;;;;;;;;4992470;28;20025;-90
2022/06/04 12:42:20;;;;;;;6.60;4.43;;;;;;;;;;5014890;28;20037;-90
2022/06/04 12:45:06;;;;;;;7.30;4.22;;;;;;;;;;5011695;28;20075;-89
2022/06/04 12:47:42;;;;;;;4.93;3.53;;;;;;;;;;5012245;28;20018;-89
2022/06/04 12:50:18;;;;;;;5.82;3.95;;;;;;;;;;5011127;28;20049;-89
2022/06/04 12:53:07;;;;;;;7.63;3.47;;;;;;;;;;4992323;28;20026;-90
2022/06/04 12:55:45;;;;;;;6.13;3.53;;;;;;;;;;5009726;28;20021;-91
2022/06/04 12:58:32;;;;;;;7.03;3.95;;;;;;;;;;5007932;28;20028;-89
2022/06/04 13:01:06;;;;;;;9.05;3.80;;;;;;;;;;4992804;28;20024;-89
2022/06/04 13:03:34;;;;;;;13.80;4.80;;;;;;;;;;5010515;28;20030;-91
2022/06/04 13:06:01;;;;;;;5.20;3.50;;;;;;;;;;5011404;28;20097;-87
2022/06/04 13:08:33;;;;;;;6.03;4.13;;;;;;;;;;4991330;28;20022;-89
2022/06/04 13:11:17;;;;;;;2.80;2.33;;;;;;;;;;5005526;28;20023;-87
2022/06/04 13:13:52;;;;;;;6.00;3.92;;;;;;;;;;5009029;28;20375;-87
2022/06/04 13:16:19;;;;;;;6.97;4.22;;;;;;;;;;5006045;28;20026;-87
2022/06/04 13:18:48;;;;;;;7.68;4.10;;;;;;;;;;5006614;28;20075;-88
2022/06/04 13:21:15;;;;;;;10.15;4.05;;;;;;;;;;4989669;28;20033;-88
2022/06/04 13:23:45;;;;;;;5.65;4.13;;;;;;;;;;5010107;28;20029;-89
2022/06/04 13:26:31;;;;;;;5.35;4.00;;;;;;;;;;4987536;28;20033;-88
2022/06/04 13:28:57;;;;;;;5.28;3.22;;;;;;;;;;5002698;28;20441;-88
2022/06/04 13:31:30;;;;;;;5.53;4.07;;;;;;;;;;5007603;28;20096;-89
2022/06/04 13:33:56;;;;;;;4.78;3.65;;;;;;;;;;5005706;28;20485;-87
2022/06/04 13:36:26;;;;;;;4.82;3.60;;;;;;;;;;4988115;28;20343;-89
2022/06/04 13:38:56;;;;;;;4.40;4.00;;;;;;;;;;4984201;28;20049;-87
2022/06/04 13:44:09;;;;;;;4.97;3.47;;;;;;;;;;5018048;28;20103;-87
2022/06/04 13:46:34;;;;;;;7.28;3.95;;;;;;;;;;5020124;28;20022;-89
2022/06/04 13:49:05;;;;;;;8.90;3.85;;;;;;;;;;5016449;28;20101;-88
2022/06/04 13:51:31;;;;;;;4.35;3.75;;;;;;;;;;5016216;28;20022;-88
2022/06/04 13:53:56;;;;;;;5.90;3.63;;;;;;;;;;5006672;28;20038;-87
2022/06/04 13:56:24;;;;;;;5.03;3.03;;;;;;;;;;4998831;28;20029;-87
2022/06/04 13:58:49;;;;;;;5.00;3.60;;;;;;;;;;5018573;28;20032;-86
2022/06/04 14:01:17;;;;;;;4.80;3.60;;;;;;;;;;5000161;28;20061;-88
2022/06/04 14:03:50;;;;;;;6.30;3.65;;;;;;;;;;5017084;28;20026;-87
2022/06/04 14:06:19;;;;;;;5.30;3.75;;;;;;;;;;5013075;28;20053;-87
2022/06/04 14:08:50;;;;;;;5.10;4.00;;;;;;;;;;4991885;28;20026;-87
2022/06/04 14:11:32;;;;;;;13.70;3.58;;;;;;;;;;4993967;28;20470;-88
2022/06/04 14:14:12;;;;;;;4.88;3.97;;;;;;;;;;4984991;28;20030;-88
2022/06/04 14:16:37;;;;;;;6.85;3.83;;;;;;;;;;4992017;28;20534;-87
2022/06/04 14:19:03;;;;;;;7.70;4.07;;;;;;;;;;5006142;28;20090;-89
2022/06/04 14:21:28;;;;;;;5.68;3.60;;;;;;;;;;5005816;28;20089;-88
2022/06/04 14:23:57;;;;;;;6.33;3.63;;;;;;;;;;4998391;28;20040;-88
2022/06/04 14:26:41;;;;;;;17.37;5.63;;;;;;;;;;4996247;28;20018;-89
2022/06/04 14:29:20;;;;;;;5.18;3.65;;;;;;;;;;5002504;28;20268;-88
2022/06/04 14:31:54;;;;;;;5.35;3.97;;;;;;;;;;5004021;28;20072;-91
2022/06/04 14:34:19;;;;;;;8.82;3.75;;;;;;;;;;4987621;28;21340;-88
2022/06/04 14:36:53;;;;;;;5.55;3.63;;;;;;;;;;5005182;28;20023;-90
2022/06/04 14:39:19;;;;;;;6.50;3.70;;;;;;;;;;5006260;28;20025;-89
2022/06/04 14:41:58;;;;;;;4.30;3.45;;;;;;;;;;5006550;28;20024;-90
2022/06/04 14:44:30;;;;;;;12.33;3.30;;;;;;;;;;5000458;28;20041;-87
2022/06/04 14:47:09;;;;;;;7.93;4.20;;;;;;;;;;5002482;28;20025;-87
2022/06/04 14:49:46;;;;;;;6.40;4.05;;;;;;;;;;5003433;28;20026;-85
2022/06/04 14:52:46;;;;;;;;;;;;;;;;;;;;;
2022/06/04 14:55:52;;;;;;;6.72;3.47;;;;;;;;;;5007373;28;20028;-88
2022/06/04 14:58:10;;;;;;;4.78;3.47;;;;;;;;;;5001527;28;20441;-88
2022/06/04 15:00:54;;;;;;;37.47;17.40;;;;;;;;;;5003621;28;20022;-87
2022/06/04 15:03:37;;;;;;;5.80;3.53;;;;;;;;;;5000318;28;20396;-86
2022/06/04 15:06:04;;;;;;;6.85;3.50;;;;;;;;;;5006589;28;20060;-87
2022/06/04 15:08:49;;;;;;;5.72;3.90;;;;;;;;;;4975495;28;20022;-88
2022/06/04 15:11:34;;;;;;;6.53;4.10;;;;;;;;;;4994598;28;20046;-89
2022/06/04 15:13:59;;;;;;;5.82;3.70;;;;;;;;;;4999890;28;20018;-87
2022/06/04 15:16:30;;;;;;;5.07;3.77;;;;;;;;;;5005517;28;20028;-88
2022/06/04 15:19:15;;;;;;;5.60;3.55;;;;;;;;;;4995913;28;20277;-89
2022/06/04 15:21:44;;;;;;;6.38;4.50;;;;;;;;;;5004562;28;20033;-87